createdAt,value
2023-02-05T00:01:24.945Z,95603.03
2023-02-05T00:03:51.670Z,95610.31
2023-02-05T00:06:18.869Z,95597.91
2023-02-05T00:08:45.606Z,95588.91
2023-02-05T00:11:12.525Z,95589.72
2023-02-05T00:13:40.704Z,95596.53
2023-02-05T00:16:12.520Z,95600.84
2023-02-05T00:18:39.334Z,95604.84
2023-02-05T00:21:06.782Z,95593.84
2023-02-05T00:23:34.072Z,95591.50
2023-02-05T00:26:01.012Z,95591.78
2023-02-05T00:28:27.680Z,95592.53
2023-02-05T00:30:54.404Z,95594.06
2023-02-05T00:33:22.069Z,95595.78
2023-02-05T00:35:48.865Z,95594.03
2023-02-05T00:38:15.579Z,95602.63
2023-02-05T00:40:42.254Z,95596.59
2023-02-05T00:43:09.391Z,95598.44
2023-02-05T00:45:36.511Z,95610.06
2023-02-05T00:48:04.564Z,95606.47
2023-02-05T00:50:32.451Z,95593.81
2023-02-05T00:52:59.182Z,95607.06
2023-02-05T00:55:26.154Z,95613.31
2023-02-05T00:57:52.862Z,95597.34
2023-02-05T01:00:19.825Z,95602.50
2023-02-05T01:02:46.722Z,95602.94
2023-02-05T01:05:13.525Z,95608.09
2023-02-05T01:07:41.043Z,95606.78
2023-02-05T01:10:08.208Z,95616.06
2023-02-05T01:12:34.911Z,95608.34
2023-02-05T01:15:02.688Z,95605.88
2023-02-05T01:17:29.688Z,95606.22
2023-02-05T01:19:56.349Z,95612.53
2023-02-05T01:22:23.138Z,95612.06
2023-02-05T01:24:49.839Z,95616.41
2023-02-05T01:27:16.595Z,95612.72
2023-02-05T01:29:43.350Z,95600.97
2023-02-05T01:32:10.081Z,95608.75
2023-02-05T01:34:37.060Z,95599.34
2023-02-05T01:37:03.929Z,95601.19
2023-02-05T01:39:30.673Z,95600.97
2023-02-05T01:41:57.467Z,95603.75
2023-02-05T01:44:24.953Z,95594.91
2023-02-05T01:46:53.621Z,95594.22
2023-02-05T01:49:27.488Z,95592.16
2023-02-05T01:51:55.550Z,95599.09
2023-02-05T01:54:26.083Z,95592.84
2023-02-05T01:56:56.219Z,95584.38
2023-02-05T01:59:26.621Z,95593.00
2023-02-05T02:01:53.936Z,95588.25
2023-02-05T02:04:54.637Z,95591.28
2023-02-05T02:07:24.669Z,95583.34
2023-02-05T02:09:52.927Z,95584.72
2023-02-05T02:12:29.125Z,95580.09
2023-02-05T02:15:01.287Z,95581.03
2023-02-05T02:17:28.404Z,95580.81
2023-02-05T02:20:04.730Z,95577.06
2023-02-05T02:22:56.434Z,95574.78
2023-02-05T02:26:01.446Z,95565.81
2023-02-05T02:28:51.364Z,95578.34
2023-02-05T02:31:42.442Z,95568.19
2023-02-05T02:34:17.089Z,95576.09
2023-02-05T02:36:46.793Z,95562.56
2023-02-05T02:39:21.242Z,95565.00
2023-02-05T02:41:53.970Z,95571.72
2023-02-05T02:44:25.573Z,95565.13
2023-02-05T02:46:55.534Z,95573.34
2023-02-05T02:49:26.701Z,95578.84
2023-02-05T02:51:54.541Z,95568.75
2023-02-05T02:54:22.037Z,95568.03
2023-02-05T02:56:50.178Z,95565.81
2023-02-05T02:59:19.049Z,95573.25
2023-02-05T03:01:53.665Z,95570.38
2023-02-05T03:04:31.314Z,95562.44
2023-02-05T03:07:02.411Z,95571.22
2023-02-05T03:09:37.281Z,95562.38
2023-02-05T03:12:04.229Z,95572.31
2023-02-05T03:14:31.570Z,95572.91
2023-02-05T03:16:58.263Z,95564.91
2023-02-05T03:19:25.050Z,95555.44
2023-02-05T03:22:05.030Z,95562.66
2023-02-05T03:24:32.440Z,95555.81
2023-02-05T03:26:59.229Z,95553.59
2023-02-05T03:29:28.874Z,95553.50
2023-02-05T03:32:02.238Z,95551.13
2023-02-05T03:34:57.281Z,95550.09
2023-02-05T03:37:40.592Z,95546.59
2023-02-05T03:40:30.240Z,95543.00
2023-02-05T03:43:40.116Z,95542.38
2023-02-05T03:46:29.529Z,95533.22
2023-02-05T03:49:10.166Z,95543.31
2023-02-05T03:51:53.942Z,95536.44
2023-02-05T03:54:38.978Z,95527.69
2023-02-05T03:57:20.898Z,95525.03
2023-02-05T03:59:48.618Z,95538.31
2023-02-05T04:02:15.502Z,95539.84
2023-02-05T04:04:42.205Z,95540.03
2023-02-05T04:07:09.182Z,95524.88
2023-02-05T04:09:35.903Z,95539.56
2023-02-05T04:12:02.570Z,95540.66
2023-02-05T04:14:29.286Z,95527.66
2023-02-05T04:16:56.042Z,95512.34
2023-02-05T04:19:22.742Z,95532.91
2023-02-05T04:21:49.511Z,95529.31
2023-02-05T04:24:16.246Z,95525.53
2023-02-05T04:26:43.050Z,95531.22
2023-02-05T04:29:09.744Z,95522.28
2023-02-05T04:31:37.655Z,95520.44
2023-02-05T04:34:04.370Z,95524.31
2023-02-05T04:36:31.063Z,95528.94
2023-02-05T04:38:57.753Z,95523.63
2023-02-05T04:41:24.497Z,95529.06
2023-02-05T04:43:51.247Z,95533.13
2023-02-05T04:46:17.970Z,95535.16
2023-02-05T04:48:44.724Z,95534.75
2023-02-05T04:51:13.568Z,95529.75
2023-02-05T04:53:40.598Z,95534.00
2023-02-05T04:56:10.957Z,95539.19
2023-02-05T04:58:37.884Z,95536.75
2023-02-05T05:01:05.022Z,95536.88
2023-02-05T05:03:31.963Z,95537.28
2023-02-05T05:06:03.990Z,95540.66
2023-02-05T05:08:30.649Z,95537.59
2023-02-05T05:10:57.456Z,95537.59
2023-02-05T05:13:24.166Z,95537.91
2023-02-05T05:15:55.568Z,95544.94
2023-02-05T05:18:22.522Z,95538.63
2023-02-05T05:20:49.161Z,95543.50
2023-02-05T05:23:15.831Z,95555.06
2023-02-05T05:25:47.325Z,95556.69
2023-02-05T05:28:15.765Z,95550.22
2023-02-05T05:30:43.656Z,95556.59
2023-02-05T05:33:11.177Z,95548.72
2023-02-05T05:35:38.292Z,95553.63
2023-02-05T05:38:05.506Z,95543.53
2023-02-05T05:40:51.052Z,95556.16
2023-02-05T05:43:37.877Z,95550.28
2023-02-05T05:46:05.241Z,95552.19
2023-02-05T05:48:32.239Z,95547.63
2023-02-05T05:50:59.042Z,95548.53
2023-02-05T05:53:25.718Z,95548.72
2023-02-05T05:55:52.320Z,95551.53
2023-02-05T05:58:18.916Z,95557.41
2023-02-05T06:00:45.462Z,95552.34
2023-02-05T06:03:12.096Z,95559.59
2023-02-05T06:05:39.085Z,95551.91
2023-02-05T06:08:05.816Z,95554.63
2023-02-05T06:10:33.169Z,95555.84
2023-02-05T06:13:00.567Z,95562.00
2023-02-05T06:15:27.320Z,95553.59
2023-02-05T06:17:53.956Z,95557.97
2023-02-05T06:20:20.923Z,95557.22
2023-02-05T06:22:47.602Z,95563.34
2023-02-05T06:25:15.641Z,95557.81
2023-02-05T06:27:42.366Z,95561.38
2023-02-05T06:30:09.996Z,95561.06
2023-02-05T06:32:36.657Z,95552.59
2023-02-05T06:35:03.598Z,95545.44
2023-02-05T06:37:46.050Z,95560.44
2023-02-05T06:40:15.621Z,95561.59
2023-02-05T06:42:42.619Z,95558.66
2023-02-05T06:45:10.204Z,95574.06
2023-02-05T06:47:37.283Z,95579.44
2023-02-05T06:50:05.272Z,95580.69
2023-02-05T06:52:31.892Z,95583.31
2023-02-05T06:54:58.493Z,95577.59
2023-02-05T06:57:25.100Z,95586.13
2023-02-05T06:59:51.730Z,95579.00
2023-02-05T07:02:18.332Z,95576.19
2023-02-05T07:04:44.965Z,95580.56
2023-02-05T07:07:11.700Z,95587.22
2023-02-05T07:09:38.337Z,95581.13
2023-02-05T07:12:05.363Z,95581.28
2023-02-05T07:14:32.153Z,95587.63
2023-02-05T07:16:58.879Z,95595.06
2023-02-05T07:19:25.617Z,95608.81
2023-02-05T07:21:52.208Z,95611.66
2023-02-05T07:24:19.015Z,95599.78
2023-02-05T07:26:45.712Z,95615.72
2023-02-05T07:29:12.443Z,95617.47
2023-02-05T07:31:39.350Z,95617.16
2023-02-05T07:34:06.069Z,95609.16
2023-02-05T07:36:32.767Z,95617.78
2023-02-05T07:39:06.297Z,95609.28
2023-02-05T07:41:35.348Z,95616.38
2023-02-05T07:44:02.136Z,95612.97
2023-02-05T07:46:30.217Z,95608.28
2023-02-05T07:48:57.008Z,95618.41
2023-02-05T07:51:24.860Z,95612.00
2023-02-05T07:53:52.615Z,95611.31
2023-02-05T07:56:22.486Z,95607.97
2023-02-05T07:58:49.312Z,95615.59
2023-02-05T08:01:16.117Z,95620.72
2023-02-05T08:03:43.537Z,95623.66
2023-02-05T08:06:14.156Z,95624.97
2023-02-05T08:08:40.833Z,95630.19
2023-02-05T08:11:07.563Z,95640.22
2023-02-05T08:13:34.398Z,95629.28
2023-02-05T08:16:05.532Z,95640.88
2023-02-05T08:18:32.301Z,95637.00
2023-02-05T08:20:59.250Z,95642.41
2023-02-05T08:23:25.837Z,95647.25
2023-02-05T08:25:56.536Z,95644.06
2023-02-05T08:28:24.944Z,95645.53
2023-02-05T08:30:51.612Z,95643.72
2023-02-05T08:33:18.743Z,95644.72
2023-02-05T08:35:45.721Z,95641.31
2023-02-05T08:38:12.376Z,95645.75
2023-02-05T08:40:39.069Z,95633.50
2023-02-05T08:43:05.868Z,95633.56
2023-02-05T08:45:32.919Z,95625.91
2023-02-05T08:47:59.759Z,95632.03
2023-02-05T08:50:26.490Z,95633.63
2023-02-05T08:52:53.212Z,95620.19
2023-02-05T08:55:19.914Z,95628.66
2023-02-05T08:57:46.700Z,95626.63
2023-02-05T09:00:15.247Z,95629.25
2023-02-05T09:02:43.648Z,95630.19
2023-02-05T09:05:10.477Z,95645.31
2023-02-05T09:07:41.482Z,95639.38
2023-02-05T09:10:10.002Z,95636.72
2023-02-05T09:12:36.828Z,95625.34
2023-02-05T09:15:04.086Z,95628.16
2023-02-05T09:17:30.925Z,95616.56
2023-02-05T09:19:57.704Z,95620.34
2023-02-05T09:22:24.491Z,95635.66
2023-02-05T09:24:51.154Z,95628.41
2023-02-05T09:27:17.900Z,95626.69
2023-02-05T09:29:44.815Z,95628.34
2023-02-05T09:32:11.564Z,95616.28
2023-02-05T09:34:38.335Z,95626.72
2023-02-05T09:37:05.062Z,95617.06
2023-02-05T09:40:13.079Z,95614.72
2023-02-05T09:42:41.999Z,95611.31
2023-02-05T09:45:20.833Z,95610.03
2023-02-05T09:48:00.508Z,95603.84
2023-02-05T09:50:30.224Z,95602.25
2023-02-05T09:53:03.160Z,95600.16
2023-02-05T09:55:33.177Z,95591.91
2023-02-05T09:58:08.570Z,95591.91
2023-02-05T10:01:03.405Z,95585.19
2023-02-05T10:03:45.345Z,95591.97
2023-02-05T10:06:49.844Z,95596.03
2023-02-05T10:09:35.115Z,95595.13
2023-02-05T10:12:23.464Z,95586.41
2023-02-05T10:15:02.171Z,95585.75
2023-02-05T10:17:43.090Z,95579.16
2023-02-05T10:20:43.111Z,95580.69
2023-02-05T10:23:45.332Z,95569.94
2023-02-05T10:26:15.575Z,95575.75
2023-02-05T10:29:04.769Z,95559.41
2023-02-05T10:31:50.274Z,95569.19
2023-02-05T10:34:35.210Z,95565.75
2023-02-05T10:37:04.130Z,95565.72
2023-02-05T10:39:31.311Z,95558.84
2023-02-05T10:42:34.673Z,95548.94
2023-02-05T10:45:21.127Z,95550.25
2023-02-05T10:48:31.926Z,95544.16
2023-02-05T10:51:02.978Z,95544.34
2023-02-05T10:53:30.911Z,95538.22
2023-02-05T10:55:59.535Z,95539.97
2023-02-05T10:58:31.411Z,95531.81
2023-02-05T11:00:58.502Z,95528.41
2023-02-05T11:03:25.385Z,95528.84
2023-02-05T11:05:52.262Z,95530.31
2023-02-05T11:08:40.623Z,95510.19
2023-02-05T11:11:08.405Z,95508.56
2023-02-05T11:13:40.361Z,95506.31
2023-02-05T11:16:09.146Z,95501.97
2023-02-05T11:18:40.764Z,95495.00
2023-02-05T11:21:08.936Z,95493.78
2023-02-05T11:23:40.169Z,95496.56
2023-02-05T11:26:20.427Z,95494.34
2023-02-05T11:28:47.570Z,95485.72
2023-02-05T11:31:26.280Z,95497.09
2023-02-05T11:34:11.516Z,95499.44
2023-02-05T11:36:40.583Z,95491.47
2023-02-05T11:39:07.745Z,95488.06
2023-02-05T11:41:48.317Z,95486.41
2023-02-05T11:44:24.380Z,95493.69
2023-02-05T11:46:56.925Z,95482.72
2023-02-05T11:49:32.359Z,95484.69
2023-02-05T11:51:59.570Z,95488.56
2023-02-05T11:54:32.443Z,95480.16
2023-02-05T11:57:05.384Z,95476.28
2023-02-05T11:59:32.759Z,95467.16
2023-02-05T12:02:28.815Z,95463.22
2023-02-05T12:04:58.717Z,95458.34
2023-02-05T12:07:26.776Z,95450.94
2023-02-05T12:09:59.184Z,95453.25
2023-02-05T12:12:57.954Z,95452.44
2023-02-05T12:15:45.872Z,95440.16
2023-02-05T12:18:21.706Z,95446.25
2023-02-05T12:21:09.741Z,95435.00
2023-02-05T12:24:16.215Z,95444.38
2023-02-05T12:26:45.043Z,95435.63
2023-02-05T12:29:36.117Z,95432.94
2023-02-05T12:32:15.062Z,95429.53
2023-02-05T12:35:23.714Z,95417.66
2023-02-05T12:38:09.898Z,95419.78
2023-02-05T12:40:52.054Z,95427.56
2023-02-05T12:43:37.451Z,95429.47
2023-02-05T12:46:15.148Z,95438.81
2023-02-05T12:49:00.566Z,95435.56
2023-02-05T12:51:27.312Z,95436.38
2023-02-05T12:53:59.905Z,95435.03
2023-02-05T12:56:35.620Z,95422.59
2023-02-05T12:59:27.327Z,95420.47
2023-02-05T13:02:22.837Z,95426.94
2023-02-05T13:05:05.697Z,95430.69
2023-02-05T13:07:38.780Z,95434.13
2023-02-05T13:10:19.681Z,95431.44
2023-02-05T13:12:50.684Z,95425.97
2023-02-05T13:15:30.751Z,95429.16
2023-02-05T13:18:00.356Z,95429.41
2023-02-05T13:20:48.623Z,95436.50
2023-02-05T13:23:34.079Z,95428.78
2023-02-05T13:26:08.835Z,95433.84
2023-02-05T13:28:48.142Z,95436.97
2023-02-05T13:31:26.073Z,95435.19
2023-02-05T13:33:55.356Z,95434.66
2023-02-05T13:36:25.239Z,95429.69
2023-02-05T13:39:05.942Z,95437.47
2023-02-05T13:41:57.729Z,95441.94
2023-02-05T13:44:39.016Z,95437.09
2023-02-05T13:47:11.430Z,95442.59
2023-02-05T13:50:12.220Z,95443.25
2023-02-05T13:52:53.772Z,95449.25
2023-02-05T13:55:44.923Z,95445.41
2023-02-05T13:58:15.393Z,95449.28
2023-02-05T14:00:44.078Z,95430.00
2023-02-05T14:03:27.620Z,95442.53
2023-02-05T14:05:54.407Z,95421.34
2023-02-05T14:08:26.627Z,95446.47
2023-02-05T14:11:02.405Z,95447.91
2023-02-05T14:13:32.750Z,95451.47
2023-02-05T14:16:25.189Z,95452.03
2023-02-05T14:19:00.949Z,95449.72
2023-02-05T14:21:30.921Z,95446.41
2023-02-05T14:24:00.370Z,95458.06
2023-02-05T14:26:45.055Z,95466.44
2023-02-05T14:29:43.966Z,95456.66
2023-02-05T14:32:31.546Z,95452.69
2023-02-05T14:35:24.591Z,95460.66
2023-02-05T14:37:51.704Z,95458.53
2023-02-05T14:40:27.526Z,95452.31
2023-02-05T14:43:09.816Z,95449.34
2023-02-05T14:45:43.842Z,95456.66
2023-02-05T14:48:20.433Z,95450.13
2023-02-05T14:50:47.163Z,95452.00
2023-02-05T14:53:25.609Z,95441.97
2023-02-05T14:55:56.672Z,95442.91
2023-02-05T14:58:33.933Z,95447.34
2023-02-05T15:01:45.985Z,95438.31
2023-02-05T15:04:30.706Z,95449.66
2023-02-05T15:07:00.048Z,95441.50
2023-02-05T15:09:51.072Z,95439.38
2023-02-05T15:12:47.308Z,95444.34
2023-02-05T15:15:29.039Z,95445.31
2023-02-05T15:18:00.440Z,95451.81
2023-02-05T15:20:32.512Z,95453.78
2023-02-05T15:23:13.520Z,95458.16
2023-02-05T15:25:46.800Z,95449.22
2023-02-05T15:28:32.888Z,95458.41
2023-02-05T15:31:11.862Z,95452.53
2023-02-05T15:33:47.640Z,95448.91
2023-02-05T15:36:26.351Z,95446.03
2023-02-05T15:39:02.841Z,95455.63
2023-02-05T15:41:31.049Z,95453.88
2023-02-05T15:43:59.982Z,95456.19
2023-02-05T15:46:27.323Z,95459.81
2023-02-05T15:48:55.188Z,95460.28
2023-02-05T15:51:29.040Z,95475.34
2023-02-05T15:53:58.090Z,95468.69
2023-02-05T15:56:24.865Z,95468.13
2023-02-05T15:58:54.132Z,95465.28
2023-02-05T16:01:29.666Z,95474.84
2023-02-05T16:03:56.526Z,95470.03
2023-02-05T16:06:25.560Z,95470.97
2023-02-05T16:08:52.722Z,95479.41
2023-02-05T16:11:33.848Z,95487.69
2023-02-05T16:14:10.726Z,95486.81
2023-02-05T16:16:38.393Z,95492.31
2023-02-05T16:19:11.602Z,95486.94
2023-02-05T16:21:49.600Z,95489.19
2023-02-05T16:24:31.865Z,95500.31
2023-02-05T16:27:11.038Z,95503.75
2023-02-05T16:29:48.073Z,95498.91
2023-02-05T16:32:22.025Z,95501.44
2023-02-05T16:34:49.004Z,95509.81
2023-02-05T16:37:17.097Z,95505.22
2023-02-05T16:39:55.163Z,95497.41
2023-02-05T16:42:39.075Z,95503.38
2023-02-05T16:45:15.199Z,95510.38
2023-02-05T16:47:41.864Z,95508.06
2023-02-05T16:50:33.401Z,95510.88
2023-02-05T16:53:00.285Z,95515.16
2023-02-05T16:55:26.937Z,95517.72
2023-02-05T16:57:54.829Z,95514.78
2023-02-05T17:00:29.566Z,95514.69
2023-02-05T17:02:58.713Z,95512.72
2023-02-05T17:05:31.880Z,95515.97
2023-02-05T17:08:01.392Z,95515.25
2023-02-05T17:10:29.047Z,95515.97
2023-02-05T17:13:05.286Z,95526.53
2023-02-05T17:15:42.150Z,95520.13
2023-02-05T17:18:18.933Z,95531.16
2023-02-05T17:20:46.214Z,95531.28
2023-02-05T17:23:14.921Z,95534.66
2023-02-05T17:25:51.799Z,95531.28
2023-02-05T17:28:22.835Z,95523.75
2023-02-05T17:30:50.109Z,95522.84
2023-02-05T17:33:21.555Z,95530.81
2023-02-05T17:35:48.689Z,95525.22
2023-02-05T17:38:16.230Z,95525.97
2023-02-05T17:40:46.029Z,95533.34
2023-02-05T17:43:14.479Z,95524.19
2023-02-05T17:45:44.286Z,95518.59
2023-02-05T17:48:11.721Z,95532.50
2023-02-05T17:50:38.799Z,95525.19
2023-02-05T17:53:05.642Z,95530.28
2023-02-05T17:55:32.496Z,95530.66
2023-02-05T17:57:59.355Z,95527.88
2023-02-05T18:00:27.979Z,95527.94
2023-02-05T18:02:54.962Z,95528.19
2023-02-05T18:05:22.776Z,95523.00
2023-02-05T18:07:55.286Z,95527.19
2023-02-05T18:10:25.159Z,95530.31
2023-02-05T18:12:53.372Z,95530.66
2023-02-05T18:15:20.277Z,95524.72
2023-02-05T18:17:47.088Z,95535.16
2023-02-05T18:20:15.316Z,95538.81
2023-02-05T18:22:42.241Z,95529.47
2023-02-05T18:25:09.989Z,95534.09
2023-02-05T18:27:36.814Z,95533.81
2023-02-05T18:30:04.462Z,95526.72
2023-02-05T18:32:31.304Z,95524.75
2023-02-05T18:34:57.987Z,95535.66
2023-02-05T18:37:26.508Z,95538.44
2023-02-05T18:39:53.372Z,95537.72
2023-02-05T18:42:20.191Z,95536.75
2023-02-05T18:44:47.079Z,95532.59
2023-02-05T18:47:14.149Z,95543.69
2023-02-05T18:49:41.627Z,95538.56
2023-02-05T18:52:09.470Z,95535.50
2023-02-05T18:54:36.273Z,95532.00
2023-02-05T18:57:03.111Z,95548.66
2023-02-05T18:59:29.756Z,95546.59
2023-02-05T19:01:57.136Z,95540.69
2023-02-05T19:04:25.879Z,95541.72
2023-02-05T19:06:53.764Z,95546.97
2023-02-05T19:09:22.190Z,95555.16
2023-02-05T19:11:49.762Z,95555.00
2023-02-05T19:14:18.545Z,95550.28
2023-02-05T19:16:45.664Z,95561.25
2023-02-05T19:19:13.828Z,95569.00
2023-02-05T19:21:40.805Z,95565.19
2023-02-05T19:24:09.932Z,95570.72
2023-02-05T19:26:38.447Z,95579.84
2023-02-05T19:29:08.141Z,95587.63
2023-02-05T19:31:36.948Z,95586.59
2023-02-05T19:34:04.103Z,95583.44
2023-02-05T19:36:31.376Z,95592.47
2023-02-05T19:39:00.436Z,95582.91
2023-02-05T19:41:27.931Z,95587.41
2023-02-05T19:43:57.210Z,95580.78
2023-02-05T19:46:26.876Z,95591.06
2023-02-05T19:48:54.856Z,95586.81
2023-02-05T19:51:21.992Z,95585.38
2023-02-05T19:53:48.958Z,95582.94
2023-02-05T19:56:18.625Z,95581.50
2023-02-05T19:58:47.151Z,95580.31
2023-02-05T20:01:25.691Z,95558.31
2023-02-05T20:03:54.168Z,95566.47
2023-02-05T20:06:22.344Z,95572.38
2023-02-05T20:08:49.496Z,95566.97
2023-02-05T20:11:16.773Z,95564.84
2023-02-05T20:13:43.723Z,95570.00
2023-02-05T20:16:28.244Z,95562.00
2023-02-05T20:18:56.639Z,95560.88
2023-02-05T20:21:23.447Z,95568.69
2023-02-05T20:23:50.852Z,95564.22
2023-02-05T20:26:22.355Z,95572.47
2023-02-05T20:29:12.820Z,95570.94
2023-02-05T20:31:43.007Z,95574.50
2023-02-05T20:34:22.303Z,95574.19
2023-02-05T20:36:54.242Z,95579.47
2023-02-05T20:39:22.534Z,95574.91
2023-02-05T20:41:50.944Z,95573.16
2023-02-05T20:44:18.251Z,95586.31
2023-02-05T20:46:45.073Z,95573.59
2023-02-05T20:49:12.401Z,95585.59
2023-02-05T20:51:39.606Z,95589.03
2023-02-05T20:54:06.600Z,95597.97
2023-02-05T20:56:33.497Z,95599.50
2023-02-05T20:59:01.644Z,95604.38
2023-02-05T21:01:30.420Z,95602.97
2023-02-05T21:04:00.151Z,95608.22
2023-02-05T21:06:28.960Z,95609.94
2023-02-05T21:08:56.099Z,95613.41
2023-02-05T21:11:24.053Z,95620.41
2023-02-05T21:13:51.103Z,95610.31
2023-02-05T21:16:19.779Z,95623.47
2023-02-05T21:18:47.730Z,95618.66
2023-02-05T21:21:14.379Z,95633.00
2023-02-05T21:23:41.508Z,95630.28
2023-02-05T21:26:08.538Z,95631.28
2023-02-05T21:28:35.225Z,95630.09
2023-02-05T21:31:07.104Z,95644.69
2023-02-05T21:33:34.057Z,95648.97
2023-02-05T21:36:05.370Z,95654.03
2023-02-05T21:38:35.162Z,95653.84
2023-02-05T21:41:12.723Z,95653.50
2023-02-05T21:43:39.666Z,95659.00
2023-02-05T21:46:09.593Z,95662.09
2023-02-05T21:48:36.397Z,95656.34
2023-02-05T21:51:12.625Z,95655.69
2023-02-05T21:53:39.970Z,95656.53
2023-02-05T21:56:08.867Z,95664.41
2023-02-05T21:58:37.152Z,95665.72
2023-02-05T22:01:09.579Z,95661.63
2023-02-05T22:03:36.284Z,95654.09
2023-02-05T22:06:06.812Z,95654.44
2023-02-05T22:08:37.454Z,95652.28
2023-02-05T22:11:06.656Z,95667.00
2023-02-05T22:13:35.219Z,95684.88
2023-02-05T22:16:05.890Z,95684.72
2023-02-05T22:18:33.597Z,95702.31
2023-02-05T22:21:12.152Z,95701.91
2023-02-05T22:23:42.251Z,95698.47
2023-02-05T22:26:09.248Z,95695.59
2023-02-05T22:28:36.825Z,95712.25
2023-02-05T22:31:05.694Z,95713.78
2023-02-05T22:33:33.260Z,95713.97
2023-02-05T22:36:00.133Z,95718.22
2023-02-05T22:38:27.600Z,95720.41
2023-02-05T22:40:54.216Z,95723.84
2023-02-05T22:43:20.862Z,95724.66
2023-02-05T22:45:47.615Z,95733.00
2023-02-05T22:48:14.336Z,95728.47
2023-02-05T22:50:42.009Z,95731.56
2023-02-05T22:53:09.175Z,95728.38
2023-02-05T22:55:36.574Z,95734.66
2023-02-05T22:58:03.633Z,95726.41
2023-02-05T23:00:31.079Z,95736.00
2023-02-05T23:02:58.347Z,95720.44
2023-02-05T23:05:25.871Z,95723.88
2023-02-05T23:07:52.920Z,95738.19
2023-02-05T23:10:21.068Z,95733.66
2023-02-05T23:12:48.046Z,95732.56
2023-02-05T23:15:14.976Z,95722.97
2023-02-05T23:17:41.697Z,95724.56
2023-02-05T23:20:09.918Z,95722.69
2023-02-05T23:22:36.540Z,95721.28
2023-02-05T23:25:05.513Z,95714.56
2023-02-05T23:27:32.749Z,95716.38
2023-02-05T23:29:59.637Z,95706.50
2023-02-05T23:32:26.384Z,95720.16
2023-02-05T23:34:53.003Z,95725.59
2023-02-05T23:37:19.569Z,95723.38
2023-02-05T23:39:46.200Z,95730.25
2023-02-05T23:42:12.819Z,95726.50
2023-02-05T23:44:39.377Z,95731.56
2023-02-05T23:47:06.070Z,95734.66
2023-02-05T23:49:32.687Z,95735.34
2023-02-05T23:51:59.351Z,95733.38
2023-02-05T23:54:26.016Z,95735.19
2023-02-05T23:56:52.862Z,95735.09
2023-02-05T23:59:19.468Z,95737.06
